NY Terminal Aviation Weather Discussion (AFD) - Prepared: 1157 AM EDT FRI MAR 27 2015
WEAK HIGH PRESSURE WILL GRADUALLY BUILD IN TODAY. WILL SEE MAINLY
VFR CONDS...BUT COULD SEE ON-OFF MVFR CONDITIONS/LIGHT RAIN
SHOWERS THROUGH THE DAY. 

WINDS N-NNW AROUND 10 KT...BACKING NW AND DIMINISHING SLIGHTLY
THIS AFTERNOON.

5 Day General Aviation Outlook:

.OUTLOOK FOR 12Z SAT THROUGH TUE...
.SAT...CHANCE OF MVFR CONDS WITH ANY RAIN OR SNOW SHOWERS. 
NW WINDS G20-25KT. 
.SAT NIGHT. VFR. NW WINDS G25KT. 
.SUNDAY...VFR. 
.MON...VFR. W WINDS G25KT.
.TUE...VFR. NW WINDS G20KT.


NY Metro Terminal Aviation Weather Summary: (Explanation of Color Coding)
NOTE: All Wind Directions are TRUE (add 13 degrees for magnetic directions). Tail and Crosswind Calculations do account for the magnetic deviation of runways.

Click on the Airport Below for Specific Information at that Terminal

TAF Overview JFK TAF LGA TAF EWR TAF TEB TAF HPN TAF ISP TAF

Jump to AirSpace Impacts Section Condensed "lite" version of SPA page
**************************************************************************************
KJFK Terminal Weather: (Wind Directions Are True, Except Where Noted, ADD 13 degrees for Magnetic)

5MIN KJFK 271725Z 34008KT 10SM FEW023 OVC041 07/01 
     A2974 180 65 -600 360/08 RMK AO2
5MIN KJFK 271720Z 34010KT 10SM FEW023 OVC039 07/01 
     A2974 180 65 -600 360/10 RMK AO2
********************************************
****        MAGNETIC DIRECTIONS         ****
********************************************
KJFK 03/27/2015 17:28:56 GMT 340 10 G14KT
KJFK 03/27/2015 17:26:56 GMT 350 11 KT
KJFK 03/27/2015 17:24:56 GMT 340 12 KT
KJFK 03/27/2015 17:22:56 GMT 330 11 KT
KJFK 03/27/2015 17:20:56 GMT 330 12 KT
KJFK 03/27/2015 17:18:56 GMT 340 09 KT
KJFK 03/27/2015 17:16:56 GMT 340 10 KT
KJFK 03/27/2015 17:14:56 GMT 330 10 KT
KJFK 03/27/2015 17:12:56 GMT 340 09 KT
KJFK 03/27/2015 17:10:56 GMT 340 09 KT
SAUS70 KJFK 271700 RRI
METAR KJFK 271651Z 35010KT 10SM BKN037 BKN095 OVC130 07/02 A2973 RMK AO2
     SLP068 SCT V BKN T00720017
FTNA35 KJFK 271542 RRE
KJFK 271534Z 2716/2818 34010KT P6SM FEW015 BKN060
     FM271800 32008KT P6SM BKN035 BKN150
     FM280600 33014G22KT P6SM SCT050 BKN150
KJFK FCSTER COMMENTS: BRIEF MVFR CIGS POSSIBLE AT ANY TIME BEFORE
20Z.

jfk

JFK Hourly Forecast Temperature (C)

JFK Hourly TMPS
**************************************************************************************
KLGA Terminal Weather: (Wind Directions Are True, Except Where Noted, ADD 13 degrees for Magnetic)

5MIN KLGA 271725Z 34006KT 10SM FEW024 BKN100 07/01 
     A2973 200 67 -700 350/06 RMK AO2
5MIN KLGA 271720Z 34007KT 10SM SCT024 BKN095 07/01 
     A2973 200 67 -700 350/07 RMK AO2 CIG 041 R22 SW
********************************************
****        MAGNETIC DIRECTIONS         ****
********************************************
KLGA 03/27/2015 17:29:59 GMT 360 08 KT
KLGA 03/27/2015 17:27:58 GMT 360 08 KT
KLGA 03/27/2015 17:25:58 GMT 010 07 KT
KLGA 03/27/2015 17:23:58 GMT 360 08 KT
KLGA 03/27/2015 17:21:59 GMT 360 08 KT
KLGA 03/27/2015 17:19:58 GMT 360 09 KT
KLGA 03/27/2015 17:17:58 GMT 360 09 KT
KLGA 03/27/2015 17:15:59 GMT 360 09 KT
KLGA 03/27/2015 17:13:58 GMT 360 09 KT
KLGA 03/27/2015 17:11:58 GMT 350 07 KT
SAUS70 KLGA 271700
METAR KLGA 271651Z 32006KT 10SM SCT022 BKN040 OVC140 07/01 A2973 RMK AO2
     SLP067 T00670011
FTUS31 KLGA 271536 AAA
KLGA 271534Z 2716/2812 35008KT P6SM SCT015 BKN035
     FM271700 34008KT P6SM BKN040 BKN150
     FM280600 33014G22KT P6SM SCT050 BKN150
KLGA FCSTER COMMENTS: BRIEF MVFR CIGS POSSIBLE AT ANY TIME BEFORE
20Z.

lga


**************************************************************************************

KEWR Terminal Weather: (Wind Directions Are True, Except Where Noted, ADD 13 degrees for Magnetic)

5MIN KEWR 271725Z 33008KT 10SM FEW025 BKN030 OVC037 
     08/01 A2974 190 62 -500 340/08 RMK AO2
5MIN KEWR 271720Z 35008KT 10SM FEW025 BKN030 OVC037 
     08/01 A2974 180 62 -600 360/08 RMK AO2
********************************************
****        MAGNETIC DIRECTIONS         ****
********************************************
KEWR 03/27/2015 17:29:03 GMT 360 09 KT
KEWR 03/27/2015 17:27:24 GMT 360 08 KT
KEWR 03/27/2015 17:25:03 GMT 360 08 KT
KEWR 03/27/2015 17:23:03 GMT 360 08 KT
KEWR 03/27/2015 17:21:41 GMT 360 07 KT
KEWR 03/27/2015 17:19:41 GMT 010 07 KT
KEWR 03/27/2015 17:17:41 GMT 010 06 KT
KEWR 03/27/2015 17:15:41 GMT 010 05 KT
KEWR 03/27/2015 17:13:41 GMT 350 05 KT
KEWR 03/27/2015 17:11:41 GMT 010 06 KT
SAUS70 KEWR 271700
METAR KEWR 271651Z 33009G16KT 10SM SCT028 BKN033 BKN090 OVC150 07/01
     A2974 RMK AO2 SLP072 T00720011
FTUS31 KEWR 271536 AAA
KEWR 271534Z 2716/2818 36008KT P6SM FEW020 BKN030
     FM271700 33008KT P6SM BKN040 BKN150
     FM280600 33014G22KT P6SM SCT050 BKN150
KEWR FCSTER COMMENTS: BRIEF MVFR CIGS POSSIBLE AT ANY TIME BEFORE
20Z.

ewr
Afternoon EWR Haze Potential Forecast: green
THE AFTERNOON KEWR HAZE POTENTIAL FORECAST IS GREEN...WHICH IMPLIES 
SLANT RANGE VISIBILITY 7SM OR GREATER OUTSIDE OF CLOUD.


******************************************************************************

KTEB Terminal Weather:
SPUS80 KTEB 271718
SPECI KTEB 271715Z 34007KT 10SM BKN030 OVC041 07/01 A2973 RMK AO2
FTUS31 KTEB 271536 AAA
KTEB 271534Z 2716/2812 35006KT P6SM FEW020 BKN030
     FM271700 33005KT P6SM BKN040 BKN150
     FM280600 34010KT P6SM SCT050 BKN150
KTEB FCSTER COMMENTS: BRIEF MVFR CIGS POSSIBLE AT ANY TIME BEFORE
20Z.

teb

 


**************************************************************************************

KHPN Terminal Weather:
SAUS70 KHPN 271700
METAR KHPN 271656Z 35011KT 10SM SCT025 OVC100 06/01 A2971 RMK AO2 SLP065
     T00610006
FTUS41 KHPN 271142
KHPN 271141Z 2712/2812 33007KT 6SM -SHRA BR BKN009
     FM271400 33007KT P6SM SCT015 SCT030 BKN080
      TEMPO 2714/2715 BKN030
     FM271800 33007KT P6SM BKN035 BKN120
     FM280600 33012G20KT P6SM SCT050 BKN150 AMD NOT SKED
KHPN FCSTER COMMENTS: NO UNSCHEDULED AMD. 

HPN


******************************************************************************

KISP Terminal Weather:
SAUS70 KISP 271700
METAR KISP 271656Z 36008KT 10SM FEW020 BKN095 OVC120 06/01 A2970 RMK AO2
     RAE22 SLP056 P0000 T00560011
FTUS80 KISP 271430 AAA
KISP 271428Z 2714/2812 34008KT P6SM VCSH FEW015 SCT070 OVC100
      TEMPO 2716/2718 BKN030
     FM271800 34006KT P6SM BKN040 BKN150
     FM280600 34011KT P6SM SCT050 BKN150
KISP FCSTER COMMENTS: BRIEF MVFR CIGS POSSIBLE AT ANY TIME BEFORE
21Z.

ISP

 


ZNY SWAP Season Information

(ZNY SWAP STATEMENT) (Click for PDF File) (ZNY BRIEFING) (Click for PDF File)

*******************************************************
***        NY AIR ROUTE TRAFFIC CONTROL CENTER      ***
***                DAILY SWAP STATEMENT             ***
*******************************************************

NY AIR ROUTE TRAFFIC CONTROL CENTER
DAILY SWAP STATEMENT
THURSDAY MARCH 26, 2014
SWAP IS PROBABLE AFT 20Z.
A BROKEN LN OF TS WILL FORM IN WRN ZNY AFT 19Z. TS WILL CONT TO MOV 
EWD THRU THE PERIOD REACHING WRN N90 AIRSPACE BY 22-23Z. TS WILL 
HAVE ISOL MAX CB TOPS TO FL340 AND MAY HAVE ISOL IMPACTS TO J95 THRU 
Q82 AS WELL AS N90 NORTH/WEST GATES.

$$

N90 AirSpace Impacts

N90 Compression Forecast

N90 Compression Forecast

N90 Icing Forecast

N90 Icing Forecast

N90 Thunderstorm Forecast (Issued if Expected)

N90 Day 2 SWAP Outlook

 

Surface Weather Map

Surface Weather map

National Collaborative Convective Forecast Product (CCFP) Forecasts (Mar-Oct)


Vertical Wind Profile
Untitled Document